North Bay Shore, New York
Current Conditions -  °F | °C
As of 6:53 PM on Sunday 23 Nov 2014 (Local Time) from KFRG Reporting Station
Clear Clear  
Wind Chill: 45°   Ceiling: Unl
Heat Index: 47°   Visibility: 10mi
Dew Point: 37°   Wind: 5mph
Humidity: 68%   Direction: 190°S
Pressure: 30.15"   Gusts: NA
Location:  40.7379°N, 73.2632°W
Report Text: KFRG 232353Z 19004KT 10SM CLR 08/03 A3015 RMK AO2 SLP209 T00830028 10128 20078 55001
Loading
Personal Weather Stations






























Interactive Weather Map New forecast layout! Learn more

10-Day Weather Forecast

Advertisements
Track Severe Weather on mobile